sensor_id;sensor_type;location;lat;lon;timestamp;pressure;altitude;pressure_sealevel;temperature;humidity
17311;BME280;8773;43.300;0.394;2022-11-15T00:01:16;99054.19;;;12.19;100.00
17311;BME280;8773;43.300;0.394;2022-11-15T00:03:44;99057.00;;;12.27;100.00
17311;BME280;8773;43.300;0.394;2022-11-15T00:06:14;99053.38;;;12.22;100.00
17311;BME280;8773;43.300;0.394;2022-11-15T00:08:42;99043.84;;;12.24;100.00
17311;BME280;8773;43.300;0.394;2022-11-15T00:11:11;99035.13;;;12.23;100.00
17311;BME280;8773;43.300;0.394;2022-11-15T00:13:39;99036.06;;;12.25;100.00
17311;BME280;8773;43.300;0.394;2022-11-15T00:16:08;99034.31;;;12.27;100.00
17311;BME280;8773;43.300;0.394;2022-11-15T00:18:37;99023.81;;;12.24;100.00
17311;BME280;8773;43.300;0.394;2022-11-15T00:21:07;99019.09;;;12.08;100.00
17311;BME280;8773;43.300;0.394;2022-11-15T00:23:37;99008.41;;;11.99;100.00
17311;BME280;8773;43.300;0.394;2022-11-15T00:26:05;98997.69;;;11.88;100.00
17311;BME280;8773;43.300;0.394;2022-11-15T00:28:34;98991.50;;;11.84;100.00
17311;BME280;8773;43.300;0.394;2022-11-15T00:31:02;98983.84;;;11.92;100.00
17311;BME280;8773;43.300;0.394;2022-11-15T00:33:31;98979.50;;;11.93;100.00
17311;BME280;8773;43.300;0.394;2022-11-15T00:36:01;98985.00;;;12.03;100.00
17311;BME280;8773;43.300;0.394;2022-11-15T00:38:31;98977.19;;;12.05;100.00
17311;BME280;8773;43.300;0.394;2022-11-15T00:41:02;98972.69;;;11.98;100.00
17311;BME280;8773;43.300;0.394;2022-11-15T00:43:36;98965.78;;;12.01;100.00
17311;BME280;8773;43.300;0.394;2022-11-15T00:46:08;98961.44;;;12.02;100.00
17311;BME280;8773;43.300;0.394;2022-11-15T00:48:36;98961.25;;;11.94;100.00
17311;BME280;8773;43.300;0.394;2022-11-15T00:51:05;98969.06;;;11.93;100.00
17311;BME280;8773;43.300;0.394;2022-11-15T00:53:33;98958.31;;;11.80;100.00
17311;BME280;8773;43.300;0.394;2022-11-15T00:56:03;98949.09;;;11.58;100.00
17311;BME280;8773;43.300;0.394;2022-11-15T00:58:30;98937.19;;;11.71;100.00
17311;BME280;8773;43.300;0.394;2022-11-15T01:01:05;98934.41;;;11.63;100.00
17311;BME280;8773;43.300;0.394;2022-11-15T01:03:34;98927.63;;;11.72;100.00
17311;BME280;8773;43.300;0.394;2022-11-15T01:06:02;98923.38;;;11.77;100.00
17311;BME280;8773;43.300;0.394;2022-11-15T01:08:31;98927.09;;;11.86;100.00
17311;BME280;8773;43.300;0.394;2022-11-15T01:11:05;98935.13;;;11.94;100.00
17311;BME280;8773;43.300;0.394;2022-11-15T01:13:35;98925.56;;;11.95;100.00
17311;BME280;8773;43.300;0.394;2022-11-15T01:16:07;98920.19;;;11.89;100.00
17311;BME280;8773;43.300;0.394;2022-11-15T01:18:36;98922.13;;;11.97;100.00
17311;BME280;8773;43.300;0.394;2022-11-15T01:21:06;98922.03;;;11.93;100.00
17311;BME280;8773;43.300;0.394;2022-11-15T01:23:34;98921.41;;;12.03;100.00
17311;BME280;8773;43.300;0.394;2022-11-15T01:26:06;98922.06;;;11.94;100.00
17311;BME280;8773;43.300;0.394;2022-11-15T01:28:36;98925.72;;;12.01;100.00
17311;BME280;8773;43.300;0.394;2022-11-15T01:31:10;98913.25;;;11.91;100.00
17311;BME280;8773;43.300;0.394;2022-11-15T01:33:40;98913.00;;;11.80;100.00
17311;BME280;8773;43.300;0.394;2022-11-15T01:36:11;98905.25;;;11.83;100.00
17311;BME280;8773;43.300;0.394;2022-11-15T01:38:39;98901.06;;;11.91;100.00
17311;BME280;8773;43.300;0.394;2022-11-15T01:41:15;98905.56;;;11.97;100.00
17311;BME280;8773;43.300;0.394;2022-11-15T01:43:44;98908.19;;;11.97;100.00
17311;BME280;8773;43.300;0.394;2022-11-15T01:46:23;98903.06;;;12.01;100.00
17311;BME280;8773;43.300;0.394;2022-11-15T01:48:54;98903.13;;;12.04;100.00
17311;BME280;8773;43.300;0.394;2022-11-15T01:51:26;98905.84;;;12.09;100.00
17311;BME280;8773;43.300;0.394;2022-11-15T01:54:02;98898.72;;;12.02;100.00
17311;BME280;8773;43.300;0.394;2022-11-15T01:56:36;98896.81;;;11.95;100.00
17311;BME280;8773;43.300;0.394;2022-11-15T01:59:07;98887.91;;;11.86;100.00
17311;BME280;8773;43.300;0.394;2022-11-15T02:01:36;98882.47;;;11.77;100.00
17311;BME280;8773;43.300;0.394;2022-11-15T02:04:09;98874.63;;;11.77;100.00
17311;BME280;8773;43.300;0.394;2022-11-15T02:06:38;98859.31;;;11.53;100.00
17311;BME280;8773;43.300;0.394;2022-11-15T02:09:07;98858.31;;;11.48;100.00
17311;BME280;8773;43.300;0.394;2022-11-15T02:11:37;98850.53;;;11.51;100.00
17311;BME280;8773;43.300;0.394;2022-11-15T02:14:08;98845.31;;;11.51;100.00
17311;BME280;8773;43.300;0.394;2022-11-15T02:16:43;98843.59;;;11.52;100.00
17311;BME280;8773;43.300;0.394;2022-11-15T02:22:16;98841.69;;;11.45;100.00
17311;BME280;8773;43.300;0.394;2022-11-15T02:25:03;98829.25;;;11.33;100.00
17311;BME280;8773;43.300;0.394;2022-11-15T02:28:11;98830.03;;;11.30;100.00
17311;BME280;8773;43.300;0.394;2022-11-15T02:30:45;98818.00;;;11.35;100.00
17311;BME280;8773;43.300;0.394;2022-11-15T02:33:26;98807.09;;;11.15;100.00
17311;BME280;8773;43.300;0.394;2022-11-15T02:36:00;98792.25;;;11.13;100.00
17311;BME280;8773;43.300;0.394;2022-11-15T02:38:34;98789.94;;;10.89;100.00
17311;BME280;8773;43.300;0.394;2022-11-15T02:41:08;98777.81;;;10.91;100.00
17311;BME280;8773;43.300;0.394;2022-11-15T02:43:45;98785.28;;;10.77;100.00
17311;BME280;8773;43.300;0.394;2022-11-15T02:46:33;98774.91;;;10.80;100.00
17311;BME280;8773;43.300;0.394;2022-11-15T02:49:20;98778.16;;;10.70;100.00
17311;BME280;8773;43.300;0.394;2022-11-15T02:51:50;98773.69;;;10.66;100.00
17311;BME280;8773;43.300;0.394;2022-11-15T02:54:22;98767.94;;;10.79;100.00
17311;BME280;8773;43.300;0.394;2022-11-15T02:56:53;98757.00;;;10.59;100.00
17311;BME280;8773;43.300;0.394;2022-11-15T02:59:43;98744.88;;;10.61;100.00
17311;BME280;8773;43.300;0.394;2022-11-15T03:02:27;98736.06;;;10.91;100.00
17311;BME280;8773;43.300;0.394;2022-11-15T03:05:03;98739.03;;;11.08;100.00
17311;BME280;8773;43.300;0.394;2022-11-15T03:07:36;98734.72;;;11.08;100.00
17311;BME280;8773;43.300;0.394;2022-11-15T03:10:10;98742.66;;;11.13;100.00
17311;BME280;8773;43.300;0.394;2022-11-15T03:12:45;98729.78;;;11.22;100.00
17311;BME280;8773;43.300;0.394;2022-11-15T03:15:18;98729.03;;;11.28;100.00
17311;BME280;8773;43.300;0.394;2022-11-15T03:17:55;98729.94;;;11.30;100.00
17311;BME280;8773;43.300;0.394;2022-11-15T03:20:26;98730.75;;;11.27;100.00
17311;BME280;8773;43.300;0.394;2022-11-15T03:22:58;98726.50;;;11.31;100.00
17311;BME280;8773;43.300;0.394;2022-11-15T03:25:28;98735.34;;;11.37;100.00
17311;BME280;8773;43.300;0.394;2022-11-15T03:28:02;98728.47;;;11.42;100.00
17311;BME280;8773;43.300;0.394;2022-11-15T03:30:34;98720.38;;;11.30;100.00
17311;BME280;8773;43.300;0.394;2022-11-15T03:33:07;98712.38;;;11.21;100.00
17311;BME280;8773;43.300;0.394;2022-11-15T03:35:39;98709.94;;;11.29;100.00
17311;BME280;8773;43.300;0.394;2022-11-15T03:38:15;98702.97;;;11.29;100.00
17311;BME280;8773;43.300;0.394;2022-11-15T03:40:48;98694.16;;;11.24;100.00
17311;BME280;8773;43.300;0.394;2022-11-15T03:43:25;98689.88;;;11.28;100.00
17311;BME280;8773;43.300;0.394;2022-11-15T03:46:00;98702.22;;;11.35;100.00
17311;BME280;8773;43.300;0.394;2022-11-15T03:48:33;98702.06;;;11.27;100.00
17311;BME280;8773;43.300;0.394;2022-11-15T03:51:04;98687.31;;;11.29;100.00
17311;BME280;8773;43.300;0.394;2022-11-15T03:53:32;98673.28;;;11.24;100.00
17311;BME280;8773;43.300;0.394;2022-11-15T03:56:00;98676.97;;;11.34;100.00
17311;BME280;8773;43.300;0.394;2022-11-15T03:58:28;98673.28;;;11.24;100.00
17311;BME280;8773;43.300;0.394;2022-11-15T04:00:56;98669.75;;;11.22;100.00
17311;BME280;8773;43.300;0.394;2022-11-15T04:03:26;98655.56;;;10.68;100.00
17311;BME280;8773;43.300;0.394;2022-11-15T04:05:56;98657.38;;;10.72;100.00
17311;BME280;8773;43.300;0.394;2022-11-15T04:08:24;98656.06;;;10.91;100.00
17311;BME280;8773;43.300;0.394;2022-11-15T04:10:52;98645.41;;;10.81;100.00
17311;BME280;8773;43.300;0.394;2022-11-15T04:13:21;98649.81;;;10.85;100.00
17311;BME280;8773;43.300;0.394;2022-11-15T04:15:49;98641.97;;;10.83;100.00
17311;BME280;8773;43.300;0.394;2022-11-15T04:18:17;98631.28;;;10.71;100.00
17311;BME280;8773;43.300;0.394;2022-11-15T04:20:45;98630.63;;;10.45;100.00
17311;BME280;8773;43.300;0.394;2022-11-15T04:23:32;98625.16;;;10.70;100.00
17311;BME280;8773;43.300;0.394;2022-11-15T04:26:29;98623.50;;;10.74;100.00
17311;BME280;8773;43.300;0.394;2022-11-15T04:28:57;98630.63;;;10.83;100.00
17311;BME280;8773;43.300;0.394;2022-11-15T04:31:48;98618.84;;;10.61;100.00
17311;BME280;8773;43.300;0.394;2022-11-15T04:34:16;98610.09;;;10.59;100.00
17311;BME280;8773;43.300;0.394;2022-11-15T04:36:44;98623.56;;;10.75;100.00
17311;BME280;8773;43.300;0.394;2022-11-15T04:39:31;98637.66;;;10.85;100.00
17311;BME280;8773;43.300;0.394;2022-11-15T04:41:59;98632.25;;;10.76;100.00
17311;BME280;8773;43.300;0.394;2022-11-15T04:44:27;98628.47;;;10.65;100.00
17311;BME280;8773;43.300;0.394;2022-11-15T04:46:56;98622.69;;;10.76;100.00
17311;BME280;8773;43.300;0.394;2022-11-15T04:49:24;98622.97;;;10.90;100.00
17311;BME280;8773;43.300;0.394;2022-11-15T04:51:52;98623.91;;;10.92;100.00
17311;BME280;8773;43.300;0.394;2022-11-15T04:54:20;98627.75;;;11.10;100.00
17311;BME280;8773;43.300;0.394;2022-11-15T04:56:49;98639.34;;;11.24;100.00
17311;BME280;8773;43.300;0.394;2022-11-15T04:59:17;98631.63;;;11.30;100.00
17311;BME280;8773;43.300;0.394;2022-11-15T05:01:45;98641.25;;;11.31;100.00
17311;BME280;8773;43.300;0.394;2022-11-15T05:04:13;98632.69;;;11.38;100.00
17311;BME280;8773;43.300;0.394;2022-11-15T05:06:48;98627.22;;;11.28;100.00
17311;BME280;8773;43.300;0.394;2022-11-15T05:09:16;98626.31;;;11.24;100.00
17311;BME280;8773;43.300;0.394;2022-11-15T05:11:45;98623.06;;;11.37;100.00
17311;BME280;8773;43.300;0.394;2022-11-15T05:14:17;98633.59;;;11.40;100.00
17311;BME280;8773;43.300;0.394;2022-11-15T05:16:45;98631.81;;;11.39;100.00
17311;BME280;8773;43.300;0.394;2022-11-15T05:19:13;98645.06;;;11.50;100.00
17311;BME280;8773;43.300;0.394;2022-11-15T05:21:41;98648.75;;;11.58;100.00
17311;BME280;8773;43.300;0.394;2022-11-15T05:24:10;98641.44;;;11.42;100.00
17311;BME280;8773;43.300;0.394;2022-11-15T05:26:38;98656.28;;;11.45;100.00
17311;BME280;8773;43.300;0.394;2022-11-15T05:29:08;98647.56;;;11.44;100.00
17311;BME280;8773;43.300;0.394;2022-11-15T05:31:40;98649.50;;;11.53;100.00
17311;BME280;8773;43.300;0.394;2022-11-15T05:34:09;98649.56;;;11.57;100.00
17311;BME280;8773;43.300;0.394;2022-11-15T05:36:38;98643.09;;;11.37;100.00
17311;BME280;8773;43.300;0.394;2022-11-15T05:39:09;98645.44;;;11.23;100.00
17311;BME280;8773;43.300;0.394;2022-11-15T05:41:39;98642.22;;;11.36;100.00
17311;BME280;8773;43.300;0.394;2022-11-15T05:44:11;98635.44;;;11.46;100.00
17311;BME280;8773;43.300;0.394;2022-11-15T05:46:42;98638.97;;;11.50;100.00
17311;BME280;8773;43.300;0.394;2022-11-15T05:49:13;98651.25;;;11.54;100.00
17311;BME280;8773;43.300;0.394;2022-11-15T05:51:44;98646.00;;;11.52;100.00
17311;BME280;8773;43.300;0.394;2022-11-15T05:54:16;98633.25;;;11.25;100.00
17311;BME280;8773;43.300;0.394;2022-11-15T05:56:45;98622.72;;;11.19;100.00
17311;BME280;8773;43.300;0.394;2022-11-15T05:59:13;98638.38;;;11.19;100.00
17311;BME280;8773;43.300;0.394;2022-11-15T06:01:43;98634.75;;;11.11;100.00
17311;BME280;8773;43.300;0.394;2022-11-15T06:04:11;98626.66;;;10.98;100.00
17311;BME280;8773;43.300;0.394;2022-11-15T06:06:39;98622.03;;;10.87;100.00
17311;BME280;8773;43.300;0.394;2022-11-15T06:09:07;98599.50;;;10.51;100.00
17311;BME280;8773;43.300;0.394;2022-11-15T06:11:35;98585.59;;;10.52;100.00
17311;BME280;8773;43.300;0.394;2022-11-15T06:14:04;98591.25;;;10.70;100.00
17311;BME280;8773;43.300;0.394;2022-11-15T06:16:32;98595.97;;;10.87;100.00
17311;BME280;8773;43.300;0.394;2022-11-15T06:19:02;98603.94;;;10.93;100.00
17311;BME280;8773;43.300;0.394;2022-11-15T06:21:30;98611.81;;;10.96;100.00
17311;BME280;8773;43.300;0.394;2022-11-15T06:23:58;98612.53;;;10.89;100.00
17311;BME280;8773;43.300;0.394;2022-11-15T06:26:26;98606.56;;;10.56;100.00
17311;BME280;8773;43.300;0.394;2022-11-15T06:28:54;98610.25;;;10.66;100.00
17311;BME280;8773;43.300;0.394;2022-11-15T06:31:23;98605.19;;;10.72;100.00
17311;BME280;8773;43.300;0.394;2022-11-15T06:33:51;98617.75;;;10.89;100.00
17311;BME280;8773;43.300;0.394;2022-11-15T06:36:20;98623.22;;;11.01;100.00
17311;BME280;8773;43.300;0.394;2022-11-15T06:38:48;98626.50;;;10.91;100.00
17311;BME280;8773;43.300;0.394;2022-11-15T06:41:16;98629.25;;;10.98;100.00
17311;BME280;8773;43.300;0.394;2022-11-15T06:43:44;98626.22;;;10.80;100.00
17311;BME280;8773;43.300;0.394;2022-11-15T06:46:12;98641.31;;;10.93;100.00
17311;BME280;8773;43.300;0.394;2022-11-15T06:48:40;98627.84;;;10.73;100.00
17311;BME280;8773;43.300;0.394;2022-11-15T06:51:09;98620.84;;;10.71;100.00
17311;BME280;8773;43.300;0.394;2022-11-15T06:53:38;98615.81;;;10.80;100.00
17311;BME280;8773;43.300;0.394;2022-11-15T06:56:06;98623.91;;;10.92;100.00
17311;BME280;8773;43.300;0.394;2022-11-15T06:58:35;98633.22;;;10.81;100.00
17311;BME280;8773;43.300;0.394;2022-11-15T07:01:05;98633.22;;;10.81;100.00
17311;BME280;8773;43.300;0.394;2022-11-15T07:03:34;98626.66;;;10.98;100.00
17311;BME280;8773;43.300;0.394;2022-11-15T07:06:03;98608.91;;;10.82;100.00
17311;BME280;8773;43.300;0.394;2022-11-15T07:08:34;98611.50;;;10.82;100.00
17311;BME280;8773;43.300;0.394;2022-11-15T07:11:06;98616.72;;;10.82;100.00
17311;BME280;8773;43.300;0.394;2022-11-15T07:13:35;98601.31;;;10.55;100.00
17311;BME280;8773;43.300;0.394;2022-11-15T07:16:05;98612.16;;;10.72;100.00
17311;BME280;8773;43.300;0.394;2022-11-15T07:18:34;98615.09;;;10.49;100.00
17311;BME280;8773;43.300;0.394;2022-11-15T07:21:04;98594.91;;;10.04;100.00
17311;BME280;8773;43.300;0.394;2022-11-15T07:23:33;98587.97;;;10.05;100.00
17311;BME280;8773;43.300;0.394;2022-11-15T07:26:05;98599.75;;;10.24;100.00
17311;BME280;8773;43.300;0.394;2022-11-15T07:28:33;98605.81;;;10.61;100.00
17311;BME280;8773;43.300;0.394;2022-11-15T07:31:02;98605.47;;;10.83;100.00
17311;BME280;8773;43.300;0.394;2022-11-15T07:33:31;98620.63;;;11.03;100.00
17311;BME280;8773;43.300;0.394;2022-11-15T07:36:00;98612.94;;;10.68;100.00
17311;BME280;8773;43.300;0.394;2022-11-15T07:38:30;98605.97;;;10.67;100.00
17311;BME280;8773;43.300;0.394;2022-11-15T07:41:02;98613.34;;;10.86;100.00
17311;BME280;8773;43.300;0.394;2022-11-15T07:43:32;98617.28;;;11.08;100.00
17311;BME280;8773;43.300;0.394;2022-11-15T07:46:05;98623.03;;;11.34;100.00
17311;BME280;8773;43.300;0.394;2022-11-15T07:48:36;98633.97;;;11.60;100.00
17311;BME280;8773;43.300;0.394;2022-11-15T07:51:11;98634.72;;;11.55;100.00
17311;BME280;8773;43.300;0.394;2022-11-15T07:53:40;98628.88;;;11.23;100.00
17311;BME280;8773;43.300;0.394;2022-11-15T07:56:09;98627.06;;;11.18;100.00
17311;BME280;8773;43.300;0.394;2022-11-15T07:58:39;98635.16;;;11.32;100.00
17311;BME280;8773;43.300;0.394;2022-11-15T08:01:08;98639.06;;;11.53;100.00
17311;BME280;8773;43.300;0.394;2022-11-15T08:03:37;98637.50;;;11.64;100.00
17311;BME280;8773;43.300;0.394;2022-11-15T08:06:05;98641.81;;;11.62;100.00
17311;BME280;8773;43.300;0.394;2022-11-15T08:08:33;98630.41;;;11.57;100.00
17311;BME280;8773;43.300;0.394;2022-11-15T08:11:02;98636.56;;;11.59;100.00
17311;BME280;8773;43.300;0.394;2022-11-15T08:13:30;98637.72;;;11.75;100.00
17311;BME280;8773;43.300;0.394;2022-11-15T08:16:01;98633.94;;;12.07;100.00
17311;BME280;8773;43.300;0.394;2022-11-15T08:18:32;98637.88;;;12.34;100.00
17311;BME280;8773;43.300;0.394;2022-11-15T08:21:01;98636.25;;;12.42;100.00
17311;BME280;8773;43.300;0.394;2022-11-15T08:23:29;98631.22;;;12.55;100.00
17311;BME280;8773;43.300;0.394;2022-11-15T08:26:01;98630.03;;;12.33;100.00
17311;BME280;8773;43.300;0.394;2022-11-15T08:28:30;98627.75;;;12.01;100.00
17311;BME280;8773;43.300;0.394;2022-11-15T08:31:00;98636.06;;;12.30;100.00
17311;BME280;8773;43.300;0.394;2022-11-15T08:33:29;98645.88;;;12.45;100.00
17311;BME280;8773;43.300;0.394;2022-11-15T08:35:58;98637.16;;;12.43;100.00
17311;BME280;8773;43.300;0.394;2022-11-15T08:38:27;98632.00;;;12.49;100.00
17311;BME280;8773;43.300;0.394;2022-11-15T08:41:01;98628.13;;;12.80;100.00
17311;BME280;8773;43.300;0.394;2022-11-15T08:43:30;98633.06;;;12.62;100.00
17311;BME280;8773;43.300;0.394;2022-11-15T08:46:00;98634.22;;;12.23;100.00
17311;BME280;8773;43.300;0.394;2022-11-15T08:48:29;98645.84;;;12.42;100.00
17311;BME280;8773;43.300;0.394;2022-11-15T08:50:58;98648.00;;;12.69;100.00
17311;BME280;8773;43.300;0.394;2022-11-15T08:53:26;98657.84;;;12.85;100.00
17311;BME280;8773;43.300;0.394;2022-11-15T08:55:54;98662.47;;;13.05;100.00
17311;BME280;8773;43.300;0.394;2022-11-15T08:58:22;98662.63;;;13.14;100.00
17311;BME280;8773;43.300;0.394;2022-11-15T09:00:50;98646.91;;;13.12;100.00
17311;BME280;8773;43.300;0.394;2022-11-15T09:03:27;98638.69;;;12.89;100.00
17311;BME280;8773;43.300;0.394;2022-11-15T09:05:55;98625.13;;;12.54;100.00
17311;BME280;8773;43.300;0.394;2022-11-15T09:08:23;98620.91;;;12.64;100.00
17311;BME280;8773;43.300;0.394;2022-11-15T09:11:11;98626.44;;;12.85;100.00
17311;BME280;8773;43.300;0.394;2022-11-15T09:13:41;98650.28;;;13.05;100.00
17311;BME280;8773;43.300;0.394;2022-11-15T09:16:09;98652.16;;;13.14;100.00
17311;BME280;8773;43.300;0.394;2022-11-15T09:18:40;98648.38;;;12.93;100.00
17311;BME280;8773;43.300;0.394;2022-11-15T09:21:09;98650.38;;;13.11;100.00
17311;BME280;8773;43.300;0.394;2022-11-15T09:23:37;98637.84;;;12.90;100.00
17311;BME280;8773;43.300;0.394;2022-11-15T09:26:06;98644.09;;;13.02;100.00
17311;BME280;8773;43.300;0.394;2022-11-15T09:28:34;98652.28;;;13.23;100.00
17311;BME280;8773;43.300;0.394;2022-11-15T09:31:04;98648.94;;;13.35;100.00
17311;BME280;8773;43.300;0.394;2022-11-15T09:33:33;98649.06;;;12.82;100.00
17311;BME280;8773;43.300;0.394;2022-11-15T09:36:04;98656.31;;;13.01;100.00
17311;BME280;8773;43.300;0.394;2022-11-15T09:38:33;98656.69;;;13.29;100.00
17311;BME280;8773;43.300;0.394;2022-11-15T09:41:28;98656.03;;;13.47;100.00
17311;BME280;8773;43.300;0.394;2022-11-15T09:44:10;98669.41;;;13.71;100.00
17311;BME280;8773;43.300;0.394;2022-11-15T09:47:00;98665.25;;;13.89;100.00
17311;BME280;8773;43.300;0.394;2022-11-15T09:49:31;98669.78;;;14.05;100.00
17311;BME280;8773;43.300;0.394;2022-11-15T09:52:02;98672.41;;;14.05;100.00
17311;BME280;8773;43.300;0.394;2022-11-15T09:54:32;98677.78;;;14.19;100.00
17311;BME280;8773;43.300;0.394;2022-11-15T09:57:27;98679.56;;;14.20;100.00
17311;BME280;8773;43.300;0.394;2022-11-15T10:00:08;98693.50;;;14.17;100.00
17311;BME280;8773;43.300;0.394;2022-11-15T10:03:09;98701.34;;;14.16;100.00
17311;BME280;8773;43.300;0.394;2022-11-15T10:05:39;98682.88;;;14.04;100.00
17311;BME280;8773;43.300;0.394;2022-11-15T10:08:22;98677.81;;;14.22;100.00
17311;BME280;8773;43.300;0.394;2022-11-15T10:10:55;98659.75;;;14.56;100.00
17311;BME280;8773;43.300;0.394;2022-11-15T10:13:45;98664.16;;;14.63;100.00
17311;BME280;8773;43.300;0.394;2022-11-15T10:16:37;98666.72;;;14.57;100.00
17311;BME280;8773;43.300;0.394;2022-11-15T10:19:15;98672.03;;;14.63;100.00
17311;BME280;8773;43.300;0.394;2022-11-15T10:21:53;98667.75;;;14.79;100.00
17311;BME280;8773;43.300;0.394;2022-11-15T10:24:26;98669.66;;;15.04;100.00
17311;BME280;8773;43.300;0.394;2022-11-15T10:26:56;98674.22;;;15.28;100.00
17311;BME280;8773;43.300;0.394;2022-11-15T10:29:24;98669.03;;;15.47;100.00
17311;BME280;8773;43.300;0.394;2022-11-15T10:31:55;98654.97;;;15.34;100.00
17311;BME280;8773;43.300;0.394;2022-11-15T10:34:23;98660.09;;;15.16;100.00
17311;BME280;8773;43.300;0.394;2022-11-15T10:36:55;98655.00;;;15.37;100.00
17311;BME280;8773;43.300;0.394;2022-11-15T10:39:25;98650.59;;;15.35;100.00
17311;BME280;8773;43.300;0.394;2022-11-15T10:41:55;98643.59;;;15.37;100.00
17311;BME280;8773;43.300;0.394;2022-11-15T10:44:25;98627.66;;;15.06;100.00
17311;BME280;8773;43.300;0.394;2022-11-15T10:47:27;98632.94;;;15.09;100.00
17311;BME280;8773;43.300;0.394;2022-11-15T10:50:07;98639.06;;;15.05;100.00
17311;BME280;8773;43.300;0.394;2022-11-15T10:52:53;98635.22;;;14.51;100.00
17311;BME280;8773;43.300;0.394;2022-11-15T10:55:28;98634.84;;;14.09;100.00
17311;BME280;8773;43.300;0.394;2022-11-15T10:58:03;98627.94;;;14.17;100.00
17311;BME280;8773;43.300;0.394;2022-11-15T11:00:36;98621.16;;;14.44;100.00
17311;BME280;8773;43.300;0.394;2022-11-15T11:03:20;98623.59;;;14.19;100.00
17311;BME280;8773;43.300;0.394;2022-11-15T11:06:04;98628.84;;;14.21;100.00
17311;BME280;8773;43.300;0.394;2022-11-15T11:08:33;98628.22;;;14.51;100.00
17311;BME280;8773;43.300;0.394;2022-11-15T11:11:06;98638.88;;;14.73;100.00
17311;BME280;8773;43.300;0.394;2022-11-15T11:13:36;98638.91;;;14.82;100.00
17311;BME280;8773;43.300;0.394;2022-11-15T11:19:17;98642.41;;;14.81;100.00
17311;BME280;8773;43.300;0.394;2022-11-15T11:21:50;98637.22;;;14.93;100.00
17311;BME280;8773;43.300;0.394;2022-11-15T11:24:27;98646.09;;;15.14;100.00
17311;BME280;8773;43.300;0.394;2022-11-15T11:27:11;98631.28;;;15.23;100.00
17311;BME280;8773;43.300;0.394;2022-11-15T11:29:50;98636.63;;;15.46;100.00
17311;BME280;8773;43.300;0.394;2022-11-15T11:35:24;98614.78;;;15.92;100.00
17311;BME280;8773;43.300;0.394;2022-11-15T11:37:57;98606.03;;;15.73;100.00
17311;BME280;8773;43.300;0.394;2022-11-15T11:40:30;98578.84;;;15.66;100.00
17311;BME280;8773;43.300;0.394;2022-11-15T11:43:06;98564.84;;;15.84;100.00
17311;BME280;8773;43.300;0.394;2022-11-15T11:45:59;98564.84;;;16.13;100.00
17311;BME280;8773;43.300;0.394;2022-11-15T11:48:40;98566.59;;;16.36;100.00
17311;BME280;8773;43.300;0.394;2022-11-15T11:51:17;98563.94;;;16.56;100.00
17311;BME280;8773;43.300;0.394;2022-11-15T11:53:52;98563.91;;;16.73;100.00
17311;BME280;8773;43.300;0.394;2022-11-15T11:56:26;98572.66;;;16.83;100.00
17311;BME280;8773;43.300;0.394;2022-11-15T11:59:00;98581.44;;;16.85;100.00
17311;BME280;8773;43.300;0.394;2022-11-15T12:01:37;98577.91;;;16.86;100.00
17311;BME280;8773;43.300;0.394;2022-11-15T12:04:11;98581.44;;;16.78;100.00
17311;BME280;8773;43.300;0.394;2022-11-15T12:06:46;98583.19;;;16.87;100.00
17311;BME280;8773;43.300;0.394;2022-11-15T12:09:20;98576.97;;;16.94;100.00
17311;BME280;8773;43.300;0.394;2022-11-15T12:11:55;98576.06;;;17.06;100.00
17311;BME280;8773;43.300;0.394;2022-11-15T12:14:32;98573.44;;;17.12;100.00
17311;BME280;8773;43.300;0.394;2022-11-15T12:17:00;98560.31;;;17.00;100.00
17311;BME280;8773;43.300;0.394;2022-11-15T12:19:29;98559.44;;;16.92;100.00
17311;BME280;8773;43.300;0.394;2022-11-15T12:22:02;98554.16;;;16.96;100.00
17311;BME280;8773;43.300;0.394;2022-11-15T12:24:34;98548.00;;;17.00;100.00
17311;BME280;8773;43.300;0.394;2022-11-15T12:27:15;98541.84;;;17.05;100.00
17311;BME280;8773;43.300;0.394;2022-11-15T12:29:53;98552.34;;;17.14;100.00
17311;BME280;8773;43.300;0.394;2022-11-15T12:32:26;98572.50;;;17.27;100.00
17311;BME280;8773;43.300;0.394;2022-11-15T12:34:56;98576.88;;;17.28;100.00
17311;BME280;8773;43.300;0.394;2022-11-15T12:37:47;98587.41;;;17.33;100.00
17311;BME280;8773;43.300;0.394;2022-11-15T12:40:22;98602.38;;;17.21;100.00
17311;BME280;8773;43.300;0.394;2022-11-15T12:45:48;98591.97;;;16.80;100.00
17311;BME280;8773;43.300;0.394;2022-11-15T12:54:52;98584.16;;;16.00;100.00
17311;BME280;8773;43.300;0.394;2022-11-15T12:57:33;98575.34;;;15.84;100.00
17311;BME280;8773;43.300;0.394;2022-11-15T13:00:04;98567.47;;;15.84;100.00
17311;BME280;8773;43.300;0.394;2022-11-15T13:03:16;98563.09;;;15.79;100.00
17311;BME280;8773;43.300;0.394;2022-11-15T13:06:09;98556.94;;;15.78;100.00
17311;BME280;8773;43.300;0.394;2022-11-15T13:08:57;98556.09;;;15.82;100.00
17311;BME280;8773;43.300;0.394;2022-11-15T13:11:50;98536.78;;;15.60;100.00
17311;BME280;8773;43.300;0.394;2022-11-15T13:14:45;98513.13;;;15.57;100.00
17311;BME280;8773;43.300;0.394;2022-11-15T13:20:26;98491.22;;;15.95;100.00
17311;BME280;8773;43.300;0.394;2022-11-15T13:23:02;98496.47;;;15.93;100.00
17311;BME280;8773;43.300;0.394;2022-11-15T13:28:38;98474.56;;;15.79;100.00
17311;BME280;8773;43.300;0.394;2022-11-15T13:31:24;98443.88;;;15.29;100.00
17311;BME280;8773;43.300;0.394;2022-11-15T13:33:56;98464.06;;;15.68;100.00
17311;BME280;8773;43.300;0.394;2022-11-15T13:36:31;98459.63;;;15.92;100.00
17311;BME280;8773;43.300;0.394;2022-11-15T13:39:04;98456.13;;;16.13;100.00
17311;BME280;8773;43.300;0.394;2022-11-15T13:41:34;98447.34;;;16.09;100.00
17311;BME280;8773;43.300;0.394;2022-11-15T13:44:03;98440.34;;;16.22;100.00
17311;BME280;8773;43.300;0.394;2022-11-15T13:46:32;98433.25;;;16.36;100.00
17311;BME280;8773;43.300;0.394;2022-11-15T13:49:03;98428.84;;;16.46;100.00
17311;BME280;8773;43.300;0.394;2022-11-15T13:51:36;98419.22;;;16.34;100.00
17311;BME280;8773;43.300;0.394;2022-11-15T13:54:16;98399.97;;;16.31;100.00